sensor_id;sensor_type;location;lat;lon;timestamp;P1;durP1;ratioP1;P2;durP2;ratioP2
44426;SDS011;30133;47.866;-4.222;2023-06-10T00:00:43;5.18;;;4.35;;
44426;SDS011;30133;47.866;-4.222;2023-06-10T00:03:09;5.25;;;3.72;;
44426;SDS011;30133;47.866;-4.222;2023-06-10T00:05:36;5.65;;;4.38;;
44426;SDS011;30133;47.866;-4.222;2023-06-10T00:08:07;4.87;;;3.80;;
44426;SDS011;30133;47.866;-4.222;2023-06-10T00:10:36;4.90;;;3.92;;
44426;SDS011;30133;47.866;-4.222;2023-06-10T00:13:06;6.07;;;4.07;;
44426;SDS011;30133;47.866;-4.222;2023-06-10T00:15:34;5.78;;;4.10;;
44426;SDS011;30133;47.866;-4.222;2023-06-10T00:18:00;6.30;;;4.25;;
44426;SDS011;30133;47.866;-4.222;2023-06-10T00:20:29;4.77;;;4.03;;
44426;SDS011;30133;47.866;-4.222;2023-06-10T00:22:55;5.15;;;4.03;;
44426;SDS011;30133;47.866;-4.222;2023-06-10T00:25:26;5.25;;;4.00;;
44426;SDS011;30133;47.866;-4.222;2023-06-10T00:27:52;4.68;;;4.15;;
44426;SDS011;30133;47.866;-4.222;2023-06-10T00:30:19;4.57;;;4.13;;
44426;SDS011;30133;47.866;-4.222;2023-06-10T00:32:46;4.97;;;4.30;;
44426;SDS011;30133;47.866;-4.222;2023-06-10T00:35:12;5.28;;;4.35;;
44426;SDS011;30133;47.866;-4.222;2023-06-10T00:37:38;5.70;;;4.57;;
44426;SDS011;30133;47.866;-4.222;2023-06-10T00:40:05;5.18;;;4.45;;
44426;SDS011;30133;47.866;-4.222;2023-06-10T00:42:34;7.05;;;4.30;;
44426;SDS011;30133;47.866;-4.222;2023-06-10T00:45:00;6.32;;;4.22;;
44426;SDS011;30133;47.866;-4.222;2023-06-10T00:47:27;5.35;;;4.35;;
44426;SDS011;30133;47.866;-4.222;2023-06-10T00:49:54;6.70;;;4.50;;
44426;SDS011;30133;47.866;-4.222;2023-06-10T00:52:20;5.30;;;4.75;;
44426;SDS011;30133;47.866;-4.222;2023-06-10T00:54:48;5.15;;;4.35;;
44426;SDS011;30133;47.866;-4.222;2023-06-10T00:57:14;7.25;;;4.93;;
44426;SDS011;30133;47.866;-4.222;2023-06-10T00:59:41;5.68;;;4.53;;
44426;SDS011;30133;47.866;-4.222;2023-06-10T01:02:11;7.57;;;4.55;;
44426;SDS011;30133;47.866;-4.222;2023-06-10T01:04:37;6.80;;;4.60;;
44426;SDS011;30133;47.866;-4.222;2023-06-10T01:07:17;8.05;;;4.65;;
44426;SDS011;30133;47.866;-4.222;2023-06-10T01:09:55;5.40;;;4.30;;
44426;SDS011;30133;47.866;-4.222;2023-06-10T01:12:43;6.95;;;5.03;;
44426;SDS011;30133;47.866;-4.222;2023-06-10T01:15:14;5.78;;;4.60;;
44426;SDS011;30133;47.866;-4.222;2023-06-10T01:20:32;5.70;;;4.40;;
44426;SDS011;30133;47.866;-4.222;2023-06-10T01:22:59;7.63;;;4.60;;
44426;SDS011;30133;47.866;-4.222;2023-06-10T01:25:28;5.53;;;4.75;;
44426;SDS011;30133;47.866;-4.222;2023-06-10T01:33:41;5.03;;;4.53;;
44426;SDS011;30133;47.866;-4.222;2023-06-10T01:36:08;5.15;;;4.60;;
44426;SDS011;30133;47.866;-4.222;2023-06-10T01:38:36;6.10;;;4.72;;
44426;SDS011;30133;47.866;-4.222;2023-06-10T01:41:06;5.93;;;4.50;;
44426;SDS011;30133;47.866;-4.222;2023-06-10T01:43:33;6.43;;;4.50;;
44426;SDS011;30133;47.866;-4.222;2023-06-10T01:46:00;6.47;;;4.40;;
44426;SDS011;30133;47.866;-4.222;2023-06-10T01:48:26;6.95;;;4.50;;
44426;SDS011;30133;47.866;-4.222;2023-06-10T01:50:53;7.28;;;4.68;;
44426;SDS011;30133;47.866;-4.222;2023-06-10T01:53:21;5.28;;;4.45;;
44426;SDS011;30133;47.866;-4.222;2023-06-10T01:55:48;5.73;;;4.03;;
44426;SDS011;30133;47.866;-4.222;2023-06-10T01:58:14;5.45;;;4.70;;
44426;SDS011;30133;47.866;-4.222;2023-06-10T02:00:41;6.27;;;5.20;;
44426;SDS011;30133;47.866;-4.222;2023-06-10T02:03:07;6.25;;;4.80;;
44426;SDS011;30133;47.866;-4.222;2023-06-10T02:05:33;5.63;;;4.93;;
44426;SDS011;30133;47.866;-4.222;2023-06-10T02:08:00;5.55;;;4.70;;
44426;SDS011;30133;47.866;-4.222;2023-06-10T02:10:26;7.30;;;4.77;;
44426;SDS011;30133;47.866;-4.222;2023-06-10T02:12:52;6.75;;;4.60;;
44426;SDS011;30133;47.866;-4.222;2023-06-10T02:15:19;6.68;;;5.10;;
44426;SDS011;30133;47.866;-4.222;2023-06-10T02:17:45;6.88;;;4.97;;
44426;SDS011;30133;47.866;-4.222;2023-06-10T02:20:11;5.50;;;4.50;;
44426;SDS011;30133;47.866;-4.222;2023-06-10T02:22:38;6.60;;;4.70;;
44426;SDS011;30133;47.866;-4.222;2023-06-10T02:25:05;5.80;;;4.37;;
44426;SDS011;30133;47.866;-4.222;2023-06-10T02:27:31;6.28;;;4.78;;
44426;SDS011;30133;47.866;-4.222;2023-06-10T02:29:58;5.85;;;4.30;;
44426;SDS011;30133;47.866;-4.222;2023-06-10T02:32:24;6.05;;;4.70;;
44426;SDS011;30133;47.866;-4.222;2023-06-10T02:34:50;6.88;;;5.00;;
44426;SDS011;30133;47.866;-4.222;2023-06-10T02:37:17;5.68;;;4.60;;
44426;SDS011;30133;47.866;-4.222;2023-06-10T02:39:44;5.22;;;4.13;;
44426;SDS011;30133;47.866;-4.222;2023-06-10T02:42:10;5.35;;;4.43;;
44426;SDS011;30133;47.866;-4.222;2023-06-10T02:44:37;7.97;;;4.45;;
44426;SDS011;30133;47.866;-4.222;2023-06-10T02:47:03;5.93;;;4.70;;
44426;SDS011;30133;47.866;-4.222;2023-06-10T02:49:30;7.25;;;4.75;;
44426;SDS011;30133;47.866;-4.222;2023-06-10T02:51:56;7.22;;;4.68;;
44426;SDS011;30133;47.866;-4.222;2023-06-10T02:54:24;5.03;;;4.30;;
44426;SDS011;30133;47.866;-4.222;2023-06-10T02:56:51;5.20;;;4.50;;
44426;SDS011;30133;47.866;-4.222;2023-06-10T02:59:17;6.05;;;4.22;;
44426;SDS011;30133;47.866;-4.222;2023-06-10T03:01:44;6.20;;;4.72;;
44426;SDS011;30133;47.866;-4.222;2023-06-10T03:04:11;6.15;;;4.57;;
44426;SDS011;30133;47.866;-4.222;2023-06-10T03:06:38;5.90;;;4.33;;
44426;SDS011;30133;47.866;-4.222;2023-06-10T03:09:06;6.55;;;4.40;;
44426;SDS011;30133;47.866;-4.222;2023-06-10T03:11:32;7.00;;;4.95;;
44426;SDS011;30133;47.866;-4.222;2023-06-10T03:13:59;6.03;;;4.28;;
44426;SDS011;30133;47.866;-4.222;2023-06-10T03:16:25;5.80;;;4.63;;
44426;SDS011;30133;47.866;-4.222;2023-06-10T03:18:52;5.80;;;4.70;;
44426;SDS011;30133;47.866;-4.222;2023-06-10T03:21:19;5.78;;;4.32;;
44426;SDS011;30133;47.866;-4.222;2023-06-10T03:23:46;5.53;;;4.57;;
44426;SDS011;30133;47.866;-4.222;2023-06-10T03:26:12;6.13;;;4.65;;
44426;SDS011;30133;47.866;-4.222;2023-06-10T03:28:40;7.07;;;4.57;;
44426;SDS011;30133;47.866;-4.222;2023-06-10T03:31:06;6.10;;;4.10;;
44426;SDS011;30133;47.866;-4.222;2023-06-10T03:33:33;6.50;;;4.57;;
44426;SDS011;30133;47.866;-4.222;2023-06-10T03:36:00;5.22;;;4.55;;
44426;SDS011;30133;47.866;-4.222;2023-06-10T03:38:27;6.35;;;4.43;;
44426;SDS011;30133;47.866;-4.222;2023-06-10T03:40:54;5.82;;;4.55;;
44426;SDS011;30133;47.866;-4.222;2023-06-10T03:43:20;5.13;;;4.50;;
44426;SDS011;30133;47.866;-4.222;2023-06-10T03:45:47;4.67;;;4.03;;
44426;SDS011;30133;47.866;-4.222;2023-06-10T03:48:14;5.43;;;4.80;;
44426;SDS011;30133;47.866;-4.222;2023-06-10T03:50:41;5.00;;;4.22;;
44426;SDS011;30133;47.866;-4.222;2023-06-10T03:53:08;5.88;;;4.38;;
44426;SDS011;30133;47.866;-4.222;2023-06-10T03:55:34;5.00;;;4.43;;
44426;SDS011;30133;47.866;-4.222;2023-06-10T03:58:01;6.20;;;4.40;;
44426;SDS011;30133;47.866;-4.222;2023-06-10T04:00:27;6.65;;;4.38;;
44426;SDS011;30133;47.866;-4.222;2023-06-10T04:02:55;6.70;;;4.20;;
44426;SDS011;30133;47.866;-4.222;2023-06-10T04:05:23;6.50;;;4.82;;
44426;SDS011;30133;47.866;-4.222;2023-06-10T04:07:49;7.25;;;4.38;;
44426;SDS011;30133;47.866;-4.222;2023-06-10T04:10:15;4.95;;;4.20;;
44426;SDS011;30133;47.866;-4.222;2023-06-10T04:12:42;5.05;;;4.28;;
44426;SDS011;30133;47.866;-4.222;2023-06-10T04:15:09;4.63;;;4.10;;
44426;SDS011;30133;47.866;-4.222;2023-06-10T04:17:35;5.60;;;4.35;;
44426;SDS011;30133;47.866;-4.222;2023-06-10T04:20:02;5.88;;;4.40;;
44426;SDS011;30133;47.866;-4.222;2023-06-10T04:22:31;6.33;;;4.07;;
44426;SDS011;30133;47.866;-4.222;2023-06-10T04:24:58;5.05;;;4.15;;
44426;SDS011;30133;47.866;-4.222;2023-06-10T04:27:24;4.88;;;3.88;;
44426;SDS011;30133;47.866;-4.222;2023-06-10T04:29:50;4.75;;;3.88;;
44426;SDS011;30133;47.866;-4.222;2023-06-10T04:32:17;6.15;;;4.45;;
44426;SDS011;30133;47.866;-4.222;2023-06-10T04:34:43;5.75;;;4.13;;
44426;SDS011;30133;47.866;-4.222;2023-06-10T04:37:10;7.32;;;4.63;;
44426;SDS011;30133;47.866;-4.222;2023-06-10T04:39:36;5.30;;;4.25;;
44426;SDS011;30133;47.866;-4.222;2023-06-10T04:42:02;5.90;;;4.45;;
44426;SDS011;30133;47.866;-4.222;2023-06-10T04:44:30;4.93;;;3.97;;
44426;SDS011;30133;47.866;-4.222;2023-06-10T04:46:56;5.47;;;4.17;;
44426;SDS011;30133;47.866;-4.222;2023-06-10T04:49:22;4.95;;;4.13;;
44426;SDS011;30133;47.866;-4.222;2023-06-10T04:51:49;5.57;;;3.95;;
44426;SDS011;30133;47.866;-4.222;2023-06-10T04:54:16;5.60;;;4.25;;
44426;SDS011;30133;47.866;-4.222;2023-06-10T04:56:42;5.77;;;4.27;;
44426;SDS011;30133;47.866;-4.222;2023-06-10T04:59:09;6.28;;;4.38;;
44426;SDS011;30133;47.866;-4.222;2023-06-10T05:01:35;5.68;;;4.30;;
44426;SDS011;30133;47.866;-4.222;2023-06-10T05:04:13;5.00;;;4.10;;
44426;SDS011;30133;47.866;-4.222;2023-06-10T05:06:40;6.23;;;4.03;;
44426;SDS011;30133;47.866;-4.222;2023-06-10T05:09:06;6.53;;;4.45;;
44426;SDS011;30133;47.866;-4.222;2023-06-10T05:11:32;6.72;;;4.35;;
44426;SDS011;30133;47.866;-4.222;2023-06-10T05:13:59;5.40;;;4.50;;
44426;SDS011;30133;47.866;-4.222;2023-06-10T05:16:25;5.22;;;4.07;;
44426;SDS011;30133;47.866;-4.222;2023-06-10T05:18:52;6.27;;;4.07;;
44426;SDS011;30133;47.866;-4.222;2023-06-10T05:21:19;5.18;;;3.75;;
44426;SDS011;30133;47.866;-4.222;2023-06-10T05:23:45;5.13;;;3.83;;
44426;SDS011;30133;47.866;-4.222;2023-06-10T05:26:12;4.55;;;3.85;;
44426;SDS011;30133;47.866;-4.222;2023-06-10T05:28:38;4.78;;;3.80;;
44426;SDS011;30133;47.866;-4.222;2023-06-10T05:31:05;6.82;;;3.95;;
44426;SDS011;30133;47.866;-4.222;2023-06-10T05:33:31;5.75;;;3.80;;
44426;SDS011;30133;47.866;-4.222;2023-06-10T05:35:57;4.35;;;3.60;;
44426;SDS011;30133;47.866;-4.222;2023-06-10T05:38:24;4.38;;;3.53;;
44426;SDS011;30133;47.866;-4.222;2023-06-10T05:40:50;6.63;;;4.05;;
44426;SDS011;30133;47.866;-4.222;2023-06-10T05:43:17;5.25;;;4.10;;
44426;SDS011;30133;47.866;-4.222;2023-06-10T05:45:43;6.10;;;3.97;;
44426;SDS011;30133;47.866;-4.222;2023-06-10T05:48:10;5.13;;;3.95;;
44426;SDS011;30133;47.866;-4.222;2023-06-10T05:50:36;6.22;;;4.05;;
44426;SDS011;30133;47.866;-4.222;2023-06-10T05:53:05;4.72;;;3.65;;
44426;SDS011;30133;47.866;-4.222;2023-06-10T05:55:35;5.13;;;4.07;;
44426;SDS011;30133;47.866;-4.222;2023-06-10T05:58:01;4.88;;;3.75;;
44426;SDS011;30133;47.866;-4.222;2023-06-10T06:00:28;5.95;;;3.90;;
44426;SDS011;30133;47.866;-4.222;2023-06-10T06:02:54;6.68;;;4.18;;
44426;SDS011;30133;47.866;-4.222;2023-06-10T06:05:22;4.78;;;3.78;;
44426;SDS011;30133;47.866;-4.222;2023-06-10T06:07:48;4.60;;;3.55;;
44426;SDS011;30133;47.866;-4.222;2023-06-10T06:10:16;4.23;;;3.40;;
44426;SDS011;30133;47.866;-4.222;2023-06-10T06:12:43;4.45;;;3.53;;
44426;SDS011;30133;47.866;-4.222;2023-06-10T06:15:10;4.50;;;3.80;;
44426;SDS011;30133;47.866;-4.222;2023-06-10T06:17:36;5.20;;;3.80;;
44426;SDS011;30133;47.866;-4.222;2023-06-10T06:20:03;5.85;;;3.88;;
44426;SDS011;30133;47.866;-4.222;2023-06-10T06:22:30;4.80;;;3.63;;
44426;SDS011;30133;47.866;-4.222;2023-06-10T06:24:57;4.75;;;3.67;;
44426;SDS011;30133;47.866;-4.222;2023-06-10T06:27:23;5.75;;;3.85;;
44426;SDS011;30133;47.866;-4.222;2023-06-10T06:29:49;5.20;;;3.57;;
44426;SDS011;30133;47.866;-4.222;2023-06-10T06:32:16;4.10;;;3.37;;
44426;SDS011;30133;47.866;-4.222;2023-06-10T06:34:42;4.53;;;3.20;;
44426;SDS011;30133;47.866;-4.222;2023-06-10T06:37:09;4.25;;;3.33;;
44426;SDS011;30133;47.866;-4.222;2023-06-10T06:39:35;5.40;;;3.80;;
44426;SDS011;30133;47.866;-4.222;2023-06-10T06:42:01;5.47;;;4.07;;
44426;SDS011;30133;47.866;-4.222;2023-06-10T06:44:28;4.10;;;3.53;;
44426;SDS011;30133;47.866;-4.222;2023-06-10T06:46:54;6.28;;;3.42;;
44426;SDS011;30133;47.866;-4.222;2023-06-10T06:49:20;4.60;;;3.40;;
44426;SDS011;30133;47.866;-4.222;2023-06-10T06:51:46;4.30;;;3.47;;
44426;SDS011;30133;47.866;-4.222;2023-06-10T06:54:13;4.73;;;3.33;;
44426;SDS011;30133;47.866;-4.222;2023-06-10T06:56:39;5.72;;;3.75;;
44426;SDS011;30133;47.866;-4.222;2023-06-10T06:59:06;4.35;;;3.15;;
44426;SDS011;30133;47.866;-4.222;2023-06-10T07:01:33;5.15;;;3.42;;
44426;SDS011;30133;47.866;-4.222;2023-06-10T07:03:59;6.18;;;3.50;;
44426;SDS011;30133;47.866;-4.222;2023-06-10T07:06:26;4.07;;;3.35;;
44426;SDS011;30133;47.866;-4.222;2023-06-10T07:08:52;4.70;;;3.25;;
44426;SDS011;30133;47.866;-4.222;2023-06-10T07:11:19;5.47;;;3.22;;
44426;SDS011;30133;47.866;-4.222;2023-06-10T07:13:45;5.50;;;3.28;;
44426;SDS011;30133;47.866;-4.222;2023-06-10T07:16:11;4.80;;;2.95;;
44426;SDS011;30133;47.866;-4.222;2023-06-10T07:18:38;4.75;;;3.05;;
44426;SDS011;30133;47.866;-4.222;2023-06-10T07:21:04;4.50;;;3.20;;
44426;SDS011;30133;47.866;-4.222;2023-06-10T07:23:37;4.55;;;3.17;;
44426;SDS011;30133;47.866;-4.222;2023-06-10T07:26:06;6.15;;;3.53;;
44426;SDS011;30133;47.866;-4.222;2023-06-10T07:28:36;3.92;;;2.92;;
44426;SDS011;30133;47.866;-4.222;2023-06-10T07:31:03;4.30;;;2.60;;
44426;SDS011;30133;47.866;-4.222;2023-06-10T07:33:29;3.90;;;2.70;;
44426;SDS011;30133;47.866;-4.222;2023-06-10T07:35:56;3.90;;;2.70;;
44426;SDS011;30133;47.866;-4.222;2023-06-10T07:38:22;4.00;;;2.63;;
44426;SDS011;30133;47.866;-4.222;2023-06-10T07:40:49;5.22;;;2.97;;
44426;SDS011;30133;47.866;-4.222;2023-06-10T07:43:15;4.50;;;3.20;;
44426;SDS011;30133;47.866;-4.222;2023-06-10T07:45:42;4.13;;;3.03;;
44426;SDS011;30133;47.866;-4.222;2023-06-10T07:48:09;4.68;;;3.00;;
44426;SDS011;30133;47.866;-4.222;2023-06-10T07:50:36;3.65;;;2.40;;
44426;SDS011;30133;47.866;-4.222;2023-06-10T07:53:02;3.45;;;2.63;;
44426;SDS011;30133;47.866;-4.222;2023-06-10T07:55:29;4.13;;;2.80;;
44426;SDS011;30133;47.866;-4.222;2023-06-10T07:57:55;4.85;;;2.53;;
44426;SDS011;30133;47.866;-4.222;2023-06-10T08:00:21;3.47;;;2.60;;
44426;SDS011;30133;47.866;-4.222;2023-06-10T08:02:48;4.28;;;2.65;;
44426;SDS011;30133;47.866;-4.222;2023-06-10T08:05:15;3.00;;;2.47;;
44426;SDS011;30133;47.866;-4.222;2023-06-10T08:07:42;5.43;;;2.85;;
44426;SDS011;30133;47.866;-4.222;2023-06-10T08:10:10;4.30;;;2.42;;
44426;SDS011;30133;47.866;-4.222;2023-06-10T08:12:36;3.70;;;2.42;;
44426;SDS011;30133;47.866;-4.222;2023-06-10T08:15:02;4.05;;;2.53;;
44426;SDS011;30133;47.866;-4.222;2023-06-10T08:17:32;3.38;;;2.40;;
44426;SDS011;30133;47.866;-4.222;2023-06-10T08:19:58;3.05;;;2.40;;
44426;SDS011;30133;47.866;-4.222;2023-06-10T08:22:25;4.00;;;2.33;;
44426;SDS011;30133;47.866;-4.222;2023-06-10T08:24:53;3.47;;;2.50;;
44426;SDS011;30133;47.866;-4.222;2023-06-10T08:27:21;4.30;;;2.50;;
44426;SDS011;30133;47.866;-4.222;2023-06-10T08:29:47;4.10;;;2.53;;
44426;SDS011;30133;47.866;-4.222;2023-06-10T08:32:14;2.60;;;2.17;;
44426;SDS011;30133;47.866;-4.222;2023-06-10T08:34:40;3.92;;;2.20;;
44426;SDS011;30133;47.866;-4.222;2023-06-10T08:37:07;3.17;;;2.20;;
44426;SDS011;30133;47.866;-4.222;2023-06-10T08:39:33;3.58;;;2.40;;
44426;SDS011;30133;47.866;-4.222;2023-06-10T08:44:54;4.65;;;2.65;;
44426;SDS011;30133;47.866;-4.222;2023-06-10T08:47:22;3.97;;;2.30;;
44426;SDS011;30133;47.866;-4.222;2023-06-10T08:49:49;2.75;;;2.15;;
44426;SDS011;30133;47.866;-4.222;2023-06-10T08:52:21;3.90;;;2.53;;
44426;SDS011;30133;47.866;-4.222;2023-06-10T08:54:57;3.13;;;2.20;;
44426;SDS011;30133;47.866;-4.222;2023-06-10T08:57:26;3.77;;;2.40;;
44426;SDS011;30133;47.866;-4.222;2023-06-10T08:59:53;3.20;;;2.13;;
44426;SDS011;30133;47.866;-4.222;2023-06-10T09:02:21;3.95;;;2.25;;
44426;SDS011;30133;47.866;-4.222;2023-06-10T09:04:47;3.65;;;2.20;;
44426;SDS011;30133;47.866;-4.222;2023-06-10T09:07:15;3.03;;;2.25;;
44426;SDS011;30133;47.866;-4.222;2023-06-10T09:09:42;3.50;;;2.55;;
44426;SDS011;30133;47.866;-4.222;2023-06-10T09:12:10;4.30;;;2.40;;
44426;SDS011;30133;47.866;-4.222;2023-06-10T09:14:38;3.58;;;2.00;;
44426;SDS011;30133;47.866;-4.222;2023-06-10T09:17:05;3.78;;;2.28;;
44426;SDS011;30133;47.866;-4.222;2023-06-10T09:19:31;2.55;;;1.98;;
44426;SDS011;30133;47.866;-4.222;2023-06-10T09:21:58;2.38;;;1.88;;
44426;SDS011;30133;47.866;-4.222;2023-06-10T09:24:25;2.57;;;1.87;;
44426;SDS011;30133;47.866;-4.222;2023-06-10T09:27:01;2.50;;;1.95;;
44426;SDS011;30133;47.866;-4.222;2023-06-10T09:32:32;2.83;;;1.83;;
44426;SDS011;30133;47.866;-4.222;2023-06-10T09:35:09;3.88;;;2.03;;
44426;SDS011;30133;47.866;-4.222;2023-06-10T09:37:37;2.45;;;2.00;;
44426;SDS011;30133;47.866;-4.222;2023-06-10T09:40:07;3.50;;;1.90;;
44426;SDS011;30133;47.866;-4.222;2023-06-10T09:42:36;2.88;;;1.92;;
44426;SDS011;30133;47.866;-4.222;2023-06-10T09:45:04;2.40;;;1.80;;
44426;SDS011;30133;47.866;-4.222;2023-06-10T09:47:33;3.78;;;2.13;;
44426;SDS011;30133;47.866;-4.222;2023-06-10T09:50:00;2.50;;;1.67;;
44426;SDS011;30133;47.866;-4.222;2023-06-10T09:52:27;3.42;;;1.90;;
44426;SDS011;30133;47.866;-4.222;2023-06-10T09:54:59;3.67;;;1.95;;
44426;SDS011;30133;47.866;-4.222;2023-06-10T09:57:26;2.78;;;1.70;;
44426;SDS011;30133;47.866;-4.222;2023-06-10T10:00:10;2.45;;;1.75;;
44426;SDS011;30133;47.866;-4.222;2023-06-10T10:02:47;4.38;;;2.13;;
44426;SDS011;30133;47.866;-4.222;2023-06-10T10:05:15;2.50;;;1.83;;
44426;SDS011;30133;47.866;-4.222;2023-06-10T10:07:42;2.50;;;1.80;;
44426;SDS011;30133;47.866;-4.222;2023-06-10T10:10:09;4.33;;;2.00;;
44426;SDS011;30133;47.866;-4.222;2023-06-10T10:12:40;3.30;;;2.00;;
44426;SDS011;30133;47.866;-4.222;2023-06-10T10:15:08;3.67;;;1.80;;
44426;SDS011;30133;47.866;-4.222;2023-06-10T10:17:43;3.35;;;1.92;;
44426;SDS011;30133;47.866;-4.222;2023-06-10T10:20:14;3.00;;;1.92;;
44426;SDS011;30133;47.866;-4.222;2023-06-10T10:22:46;3.17;;;1.35;;
44426;SDS011;30133;47.866;-4.222;2023-06-10T10:25:23;3.58;;;1.73;;
44426;SDS011;30133;47.866;-4.222;2023-06-10T10:30:25;4.85;;;1.70;;
44426;SDS011;30133;47.866;-4.222;2023-06-10T10:33:04;4.10;;;1.90;;
44426;SDS011;30133;47.866;-4.222;2023-06-10T10:35:34;3.78;;;1.67;;
44426;SDS011;30133;47.866;-4.222;2023-06-10T10:38:02;5.05;;;1.67;;
44426;SDS011;30133;47.866;-4.222;2023-06-10T10:40:28;4.60;;;1.83;;
44426;SDS011;30133;47.866;-4.222;2023-06-10T10:42:56;4.15;;;1.90;;
44426;SDS011;30133;47.866;-4.222;2023-06-10T10:45:22;3.97;;;1.75;;
44426;SDS011;30133;47.866;-4.222;2023-06-10T10:47:51;2.50;;;1.58;;
44426;SDS011;30133;47.866;-4.222;2023-06-10T10:50:19;3.67;;;1.93;;
44426;SDS011;30133;47.866;-4.222;2023-06-10T10:55:22;3.33;;;1.55;;
44426;SDS011;30133;47.866;-4.222;2023-06-10T10:57:55;5.50;;;1.70;;
44426;SDS011;30133;47.866;-4.222;2023-06-10T11:05:35;3.95;;;1.98;;
44426;SDS011;30133;47.866;-4.222;2023-06-10T11:08:03;4.10;;;1.85;;
44426;SDS011;30133;47.866;-4.222;2023-06-10T11:10:33;3.75;;;1.83;;
44426;SDS011;30133;47.866;-4.222;2023-06-10T11:13:13;3.15;;;1.65;;
44426;SDS011;30133;47.866;-4.222;2023-06-10T11:15:44;2.33;;;1.40;;
44426;SDS011;30133;47.866;-4.222;2023-06-10T11:20:55;4.45;;;1.77;;
44426;SDS011;30133;47.866;-4.222;2023-06-10T11:26:09;4.28;;;2.03;;
44426;SDS011;30133;47.866;-4.222;2023-06-10T11:31:20;4.60;;;1.60;;
44426;SDS011;30133;47.866;-4.222;2023-06-10T11:34:07;3.90;;;1.53;;
44426;SDS011;30133;47.866;-4.222;2023-06-10T11:36:34;3.92;;;1.70;;
44426;SDS011;30133;47.866;-4.222;2023-06-10T11:39:05;3.83;;;1.50;;
44426;SDS011;30133;47.866;-4.222;2023-06-10T11:41:32;3.28;;;1.40;;
44426;SDS011;30133;47.866;-4.222;2023-06-10T11:44:03;3.30;;;1.45;;
44426;SDS011;30133;47.866;-4.222;2023-06-10T11:46:32;4.00;;;2.05;;
44426;SDS011;30133;47.866;-4.222;2023-06-10T11:48:59;5.38;;;1.67;;
44426;SDS011;30133;47.866;-4.222;2023-06-10T11:51:28;5.75;;;1.80;;
44426;SDS011;30133;47.866;-4.222;2023-06-10T11:53:57;4.25;;;1.52;;
44426;SDS011;30133;47.866;-4.222;2023-06-10T11:56:24;3.78;;;1.70;;
44426;SDS011;30133;47.866;-4.222;2023-06-10T11:58:58;5.43;;;1.80;;
44426;SDS011;30133;47.866;-4.222;2023-06-10T12:01:31;3.60;;;1.70;;
44426;SDS011;30133;47.866;-4.222;2023-06-10T12:06:39;4.30;;;1.80;;
44426;SDS011;30133;47.866;-4.222;2023-06-10T12:11:48;3.85;;;1.90;;
44426;SDS011;30133;47.866;-4.222;2023-06-10T12:14:49;4.00;;;1.70;;
44426;SDS011;30133;47.866;-4.222;2023-06-10T12:17:16;3.50;;;1.60;;
44426;SDS011;30133;47.866;-4.222;2023-06-10T12:19:42;4.53;;;1.52;;
44426;SDS011;30133;47.866;-4.222;2023-06-10T12:22:09;3.58;;;1.73;;
44426;SDS011;30133;47.866;-4.222;2023-06-10T12:24:43;3.58;;;1.52;;
44426;SDS011;30133;47.866;-4.222;2023-06-10T12:27:11;3.47;;;1.70;;
44426;SDS011;30133;47.866;-4.222;2023-06-10T12:29:38;2.63;;;1.60;;
44426;SDS011;30133;47.866;-4.222;2023-06-10T12:32:04;4.47;;;1.80;;
44426;SDS011;30133;47.866;-4.222;2023-06-10T12:34:36;4.25;;;1.80;;
44426;SDS011;30133;47.866;-4.222;2023-06-10T12:37:04;3.85;;;1.67;;
44426;SDS011;30133;47.866;-4.222;2023-06-10T12:39:32;4.40;;;1.80;;
44426;SDS011;30133;47.866;-4.222;2023-06-10T12:41:59;3.40;;;2.00;;
44426;SDS011;30133;47.866;-4.222;2023-06-10T12:44:33;4.28;;;1.75;;
44426;SDS011;30133;47.866;-4.222;2023-06-10T12:47:00;2.28;;;1.30;;
44426;SDS011;30133;47.866;-4.222;2023-06-10T12:49:32;2.45;;;1.38;;
44426;SDS011;30133;47.866;-4.222;2023-06-10T12:52:00;3.65;;;1.70;;
44426;SDS011;30133;47.866;-4.222;2023-06-10T12:54:26;3.30;;;1.70;;
44426;SDS011;30133;47.866;-4.222;2023-06-10T12:56:53;4.67;;;1.90;;
44426;SDS011;30133;47.866;-4.222;2023-06-10T12:59:20;4.80;;;1.60;;
44426;SDS011;30133;47.866;-4.222;2023-06-10T13:01:50;5.00;;;1.70;;
44426;SDS011;30133;47.866;-4.222;2023-06-10T13:04:17;5.83;;;1.67;;
44426;SDS011;30133;47.866;-4.222;2023-06-10T13:06:44;3.58;;;1.35;;
44426;SDS011;30133;47.866;-4.222;2023-06-10T13:09:12;4.22;;;1.65;;
44426;SDS011;30133;47.866;-4.222;2023-06-10T13:11:38;5.72;;;1.75;;
44426;SDS011;30133;47.866;-4.222;2023-06-10T13:14:05;3.28;;;1.50;;
44426;SDS011;30133;47.866;-4.222;2023-06-10T13:16:32;3.20;;;1.50;;
44426;SDS011;30133;47.866;-4.222;2023-06-10T13:18:58;4.47;;;1.65;;
44426;SDS011;30133;47.866;-4.222;2023-06-10T13:21:29;2.88;;;1.30;;
44426;SDS011;30133;47.866;-4.222;2023-06-10T13:23:55;3.67;;;1.50;;
44426;SDS011;30133;47.866;-4.222;2023-06-10T13:26:21;3.55;;;1.55;;
44426;SDS011;30133;47.866;-4.222;2023-06-10T13:28:48;4.28;;;1.30;;
44426;SDS011;30133;47.866;-4.222;2023-06-10T13:31:14;2.80;;;1.27;;
44426;SDS011;30133;47.866;-4.222;2023-06-10T13:33:40;4.30;;;1.83;;
44426;SDS011;30133;47.866;-4.222;2023-06-10T13:36:08;4.35;;;1.55;;
44426;SDS011;30133;47.866;-4.222;2023-06-10T13:38:35;2.78;;;1.30;;
44426;SDS011;30133;47.866;-4.222;2023-06-10T13:41:02;3.88;;;1.58;;
44426;SDS011;30133;47.866;-4.222;2023-06-10T13:43:28;3.45;;;1.52;;
44426;SDS011;30133;47.866;-4.222;2023-06-10T13:45:55;2.63;;;1.30;;
44426;SDS011;30133;47.866;-4.222;2023-06-10T13:48:21;3.90;;;1.63;;
44426;SDS011;30133;47.866;-4.222;2023-06-10T13:50:48;3.05;;;1.27;;
44426;SDS011;30133;47.866;-4.222;2023-06-10T13:53:14;4.60;;;1.50;;
44426;SDS011;30133;47.866;-4.222;2023-06-10T13:55:40;3.63;;;1.40;;
44426;SDS011;30133;47.866;-4.222;2023-06-10T13:58:06;3.20;;;1.38;;
44426;SDS011;30133;47.866;-4.222;2023-06-10T14:00:33;3.50;;;1.60;;
44426;SDS011;30133;47.866;-4.222;2023-06-10T14:02:59;4.53;;;1.50;;
44426;SDS011;30133;47.866;-4.222;2023-06-10T14:05:26;3.97;;;1.70;;
44426;SDS011;30133;47.866;-4.222;2023-06-10T14:07:52;5.90;;;1.70;;
44426;SDS011;30133;47.866;-4.222;2023-06-10T14:10:18;2.42;;;1.45;;
44426;SDS011;30133;47.866;-4.222;2023-06-10T14:12:45;5.05;;;1.52;;
44426;SDS011;30133;47.866;-4.222;2023-06-10T14:15:11;6.13;;;1.75;;
44426;SDS011;30133;47.866;-4.222;2023-06-10T14:17:38;4.47;;;1.53;;
44426;SDS011;30133;47.866;-4.222;2023-06-10T14:20:04;3.30;;;1.63;;
44426;SDS011;30133;47.866;-4.222;2023-06-10T14:22:31;3.17;;;1.65;;
44426;SDS011;30133;47.866;-4.222;2023-06-10T14:24:57;4.75;;;1.75;;
44426;SDS011;30133;47.866;-4.222;2023-06-10T14:27:23;3.40;;;1.50;;
44426;SDS011;30133;47.866;-4.222;2023-06-10T14:29:50;4.83;;;1.80;;
44426;SDS011;30133;47.866;-4.222;2023-06-10T14:32:16;3.95;;;1.73;;
44426;SDS011;30133;47.866;-4.222;2023-06-10T14:34:43;2.90;;;1.40;;
44426;SDS011;30133;47.866;-4.222;2023-06-10T14:37:09;4.05;;;1.60;;
44426;SDS011;30133;47.866;-4.222;2023-06-10T14:39:36;4.35;;;1.50;;
44426;SDS011;30133;47.866;-4.222;2023-06-10T14:42:02;3.80;;;1.30;;
44426;SDS011;30133;47.866;-4.222;2023-06-10T14:44:29;3.90;;;1.60;;
44426;SDS011;30133;47.866;-4.222;2023-06-10T14:46:56;5.53;;;1.60;;
44426;SDS011;30133;47.866;-4.222;2023-06-10T14:49:23;5.57;;;1.60;;
44426;SDS011;30133;47.866;-4.222;2023-06-10T14:51:49;3.63;;;1.60;;
44426;SDS011;30133;47.866;-4.222;2023-06-10T14:54:16;4.72;;;1.50;;
44426;SDS011;30133;47.866;-4.222;2023-06-10T14:56:42;3.45;;;1.40;;
44426;SDS011;30133;47.866;-4.222;2023-06-10T14:59:09;3.47;;;1.50;;
44426;SDS011;30133;47.866;-4.222;2023-06-10T15:01:35;4.40;;;1.63;;
44426;SDS011;30133;47.866;-4.222;2023-06-10T15:04:02;4.22;;;1.65;;
44426;SDS011;30133;47.866;-4.222;2023-06-10T15:06:29;5.13;;;2.22;;
44426;SDS011;30133;47.866;-4.222;2023-06-10T15:08:56;4.43;;;1.55;;
44426;SDS011;30133;47.866;-4.222;2023-06-10T15:11:22;6.70;;;1.55;;
44426;SDS011;30133;47.866;-4.222;2023-06-10T15:13:48;4.47;;;1.33;;